Flight Track Log - Related Links

Times and Time Zones

All times are in EDT time to prevent confusion due to time zone crossing. See the N62457 flight status page for this flight to view local times or setup timezone preferences in your user account.

Time Position Orientation Groundspeed Altitude Reporting Facility
EDT Latitude Longitude Course Direction KTS MPH feet Rate Location/Type
Sun 10:51:13 AM 42.7047 -73.6183 177° South 98 113 4,500  Level Boston Center
Sun 10:52:14 AM 42.6778 -73.6178 179° South 97 112 4,600 50 Climbing Boston Center
Sun 10:53:14 AM 42.6528 -73.6172 179° South 95 109 4,600 -50 Level Boston Center
Sun 10:54:15 AM 42.6236 -73.6194 183° South 99 114 4,500 -49 Descending Boston Center
Sun 10:55:16 AM 42.5986 -73.6247 189° South 95 109 4,500  Level Boston Center
Sun 10:56:00 AM 42.6738 -73.5584 177° South  Level Estimated
Sun 10:56:22 AM 42.5672 -73.6214 176° South 94 108 4,500  Level Boston Center
Sun 10:57:23 AM 42.5422 -73.6208 179° South 94 108 4,500  Level Boston Center
Sun 10:58:24 AM 42.5172 -73.6203 179° South 95 109 4,500  Level Boston Center
Sun 10:59:25 AM 42.4881 -73.6225 183° South 94 108 4,500  Level Boston Center
Sun 11:00:19 AM 42.4650 -73.6222 179° South 95 109 4,500  Level Boston Center
Sun 11:01:20 AM 42.4358 -73.6217 179° South 95 109 4,500  Level Boston Center
Sun 11:02:21 AM 42.4108 -73.6183 174° South 96 110 4,500 -50 Level Boston Center
Sun 11:03:21 AM 42.3817 -73.6178 179° South 98 113 4,400 -99 Descending Boston Center
Sun 11:04:22 AM 42.3547 -73.6172 179° South 98 113 4,300  Descending Boston Center
Sun 11:05:23 AM 42.3297 -73.6139 174° South 93 107 4,400 47 Climbing Boston Center
Sun 11:06:29 AM 42.3006 -73.6106 175° South 93 107 4,400 47 Level Boston Center
Sun 11:07:30 AM 42.2756 -73.6131 184° South 95 109 4,500 49 Climbing Boston Center
Sun 11:08:31 AM 42.2464 -73.6125 179° South 95 109 4,500  Level Boston Center
Sun 11:09:31 AM 42.2214 -73.6092 174° South 96 110 4,500 50 Level Boston Center
Sun 11:10:32 AM 42.1942 -73.6114 183° South 92 106 4,600  Climbing Boston Center
Sun 11:11:39 AM 42.1692 -73.6111 180° South 91 105 4,500  Descending Boston Center
Sun 11:12:40 AM 42.1422 -73.6106 179° South 89 102 4,600  Climbing Boston Center
Sun 11:13:40 AM 42.1172 -73.6100 179° South 89 102 4,500 -100 Descending Boston Center
Sun 11:15:00 AM 42.0737 -73.5781 151° Southeast  Level FlightAware Approximate
Sun 11:22:00 AM 41.8148 -73.5459 176° South  Level Estimated
Sun 11:23:00 AM 41.7789 -73.5336 166° South  Level FlightAware Approximate
Sun 11:24:00 AM 41.7429 -73.5212 166° South  Level FlightAware Approximate
Sun 11:25:00 AM 41.7069 -73.5089 166° South  Level FlightAware Approximate
Sun 11:26:00 AM 41.6709 -73.4966 166° South  Level FlightAware Approximate
Sun 11:27:00 AM 41.6349 -73.4843 166° South  Level FlightAware Approximate
Sun 11:28:00 AM 41.5990 -73.4720 166° South  Level FlightAware Approximate
Sun 11:29:00 AM 41.5619 -73.4695 175° South  Level Estimated
Sun 11:30:00 AM 41.5250 -73.4639 174° South  Level FlightAware Approximate
Sun 11:31:00 AM 41.4881 -73.4583 174° South  Level FlightAware Approximate
Sun 11:32:00 AM 41.4512 -73.4527 174° South  Level FlightAware Approximate
Sun 11:33:00 AM 41.4141 -73.4507 177° South  Level Estimated
Sun 11:34:00 AM 41.3770 -73.4482 177° South  Level FlightAware Approximate
Sun 11:35:00 AM 41.3399 -73.4457 177° South  Level FlightAware Approximate
Sun 11:36:00 AM 41.3028 -73.4433 177° South  Level FlightAware Approximate
Sun 11:37:00 AM 41.2657 -73.4408 177° South  Level FlightAware Approximate
Sun 11:38:00 AM 41.2286 -73.4383 177° South  Level FlightAware Approximate
Sun 11:39:00 AM 41.1915 -73.4359 177° South  Level FlightAware Approximate
Sun 11:40:00 AM 41.1544 -73.4334 177° South  Level FlightAware Approximate
Sun 11:41:00 AM 41.1173 -73.4310 177° South  Level FlightAware Approximate
Sun 11:42:00 AM 41.0802 -73.4285 177° South  Level FlightAware Approximate
Sun 11:43:00 AM 41.0432 -73.4261 177° South  Level FlightAware Approximate
Sun 11:44:00 AM 41.0061 -73.4236 177° South  Level FlightAware Approximate
Sun 11:45:00 AM 40.9690 -73.4212 177° South  Level FlightAware Approximate
Sun 11:46:00 AM 40.9319 -73.4188 177° South  Level FlightAware Approximate
Sun 11:47:00 AM 40.8948 -73.4178 180° South  Level Estimated
Sun 11:48:00 AM 40.8576 -73.4168 180° South  Level Estimated
Sun 11:49:00 AM 40.8205 -73.4167 180° South  Level FlightAware Approximate
Sun 11:50:00 AM 40.7834 -73.4154 171° South  Level Estimated
Sun 11:51:00 AM 40.7468 -73.4069 170° South  Level FlightAware Approximate
Sun 11:52:00 AM 40.7288 -73.4134 171° South  Level Estimated
Sun 11:53:00 AM 40.7288 -73.4134 171° South  Level Estimated
Sun 11:54:00 AM 40.7288 -73.4134 171° South  Level Estimated
Sun 11:55:00 AM 40.7288 -73.4134 171° South  Level Estimated
Sun 11:56:00 AM 40.7288 -73.4134 171° South  Level Estimated
Sun 11:57:00 AM 40.7288 -73.4134 171° South  Level Estimated
Sun 11:58:00 AM 40.7288 -73.4134 171° South  Level Estimated
Sun 11:59:00 AM 40.7288 -73.4134 171° South  Level Estimated
Sun 12:00:00 PM 40.7288 -73.4134 171° South  Level Estimated
Sun 12:01:00 PM 40.7288 -73.4134 171° South  Level Estimated
Sun 12:02:00 PM 40.7288 -73.4134 171° South  Level Estimated
Sun 12:03:00 PM 40.7288 -73.4134 171° South  Level Estimated
Sun 12:04:00 PM 40.7288 -73.4134 171° South  Level Estimated

Login

Don't have an account? Register now (free) for customized features, flight alerts, and more!